Forside
METAR-TAF:

METAR-TAF

Lufthavne :

Copper Harbor, Michigan, USA

Breddekreds: 47-28-01N, længdekreds: 087-52-30W, højde: 190 m

Aktuelle vejr

Denne rapport blev lavet for 27 minutter siden, kl. 13:51 UTC
Vind 6 kt fra øst
Temperatur 1°C
Fugtighed 80%
Tryk 1023 hPa

METAR: KP59 311351Z AUTO 09006KT 01/M02 A3022 RMK AO1 SLP243 T00111017

Tid: 10:18 (14:18 UTC)


TAF: fraværende

Vejrobservationer og prognoser fra mere end 4000 lufthavne (METAR og TAF).

De gule og røde prikker repræsenterer de meteorologiske stationer.

Flyt musen over at se navnet på stationen.

Så klik over at se vejr observationer og prognoser.

At skifte det kort: Klik på de grønne knapper med et sort kors for at zoome ind; på den grønne knap med en bindestreg for at zoome ud; eller på de grønne pile for tilstødende kort.


METAR-TAF: